createdAt,value
2022-08-11T11:09:01.489Z,1.83
2022-08-11T11:14:27.295Z,2.13
2022-08-11T11:19:30.858Z,2.00
2022-08-11T11:24:45.185Z,1.90
2022-08-11T11:30:00.915Z,1.83
2022-08-11T11:35:26.702Z,2.00
2022-08-11T11:40:31.519Z,1.90
2022-08-11T11:45:36.770Z,1.70
2022-08-11T11:50:40.216Z,2.00
2022-08-11T11:55:43.881Z,2.38
2022-08-11T12:01:06.301Z,2.05
2022-08-11T12:06:12.134Z,1.60
2022-08-11T12:11:33.965Z,1.73
2022-08-11T12:16:40.514Z,1.77
2022-08-11T12:21:59.427Z,1.55
2022-08-11T12:27:25.111Z,1.63
2022-08-11T12:32:32.254Z,1.33
2022-08-11T12:37:40.404Z,2.15
2022-08-11T12:43:04.009Z,1.80
2022-08-11T12:49:01.039Z,1.80
2022-08-11T12:54:03.664Z,1.67
2022-08-11T12:59:26.477Z,2.00
2022-08-11T13:04:50.077Z,1.60
2022-08-11T13:09:55.446Z,1.85
2022-08-11T13:14:59.956Z,1.85
2022-08-11T13:20:06.233Z,1.50
2022-08-11T13:25:14.941Z,1.92
2022-08-11T13:30:40.323Z,1.63
2022-08-11T13:35:49.516Z,1.80
2022-08-11T13:40:55.918Z,1.40
2022-08-11T13:46:13.387Z,1.65
2022-08-11T13:51:35.121Z,2.10
2022-08-11T13:56:40.746Z,1.77
2022-08-11T14:02:03.453Z,1.67
2022-08-11T14:07:18.620Z,1.52
2022-08-11T14:12:43.390Z,1.70
2022-08-11T14:17:50.405Z,1.60
2022-08-11T14:22:56.539Z,1.70
2022-08-11T14:28:34.037Z,1.48
2022-08-11T14:33:22.697Z,1.65
2022-08-11T14:38:27.698Z,2.03
2022-08-11T14:44:12.962Z,1.70
2022-08-11T14:49:15.016Z,1.67
2022-08-11T14:54:37.020Z,1.67
2022-08-11T14:59:40.560Z,1.80
2022-08-11T15:04:43.656Z,1.50
2022-08-11T15:15:30.728Z,1.58
2022-08-11T15:20:53.569Z,2.00
2022-08-11T15:26:03.002Z,1.80
2022-08-11T15:31:24.345Z,1.67
2022-08-11T15:36:47.828Z,1.83
2022-08-11T15:42:19.688Z,1.63
2022-08-11T15:47:26.881Z,1.90
2022-08-11T15:52:38.773Z,2.00
2022-08-11T15:58:01.601Z,1.80
2022-08-11T16:03:23.192Z,1.88
2022-08-11T16:08:32.773Z,2.00
2022-08-11T16:13:57.263Z,1.90
2022-08-11T16:19:05.122Z,1.55
2022-08-11T16:27:03.321Z,2.40
2022-08-11T16:29:38.213Z,1.90
2022-08-11T16:34:59.821Z,1.88
2022-08-11T16:40:03.176Z,1.92
2022-08-11T16:45:26.357Z,1.70
2022-08-11T16:50:30.213Z,2.00
2022-08-11T16:55:51.573Z,2.30
2022-08-11T17:00:58.951Z,2.28
2022-08-11T17:06:21.082Z,2.03
2022-08-11T17:11:44.343Z,1.98
2022-08-11T17:16:51.930Z,2.05
2022-08-11T17:22:13.238Z,1.98
2022-08-11T17:27:19.084Z,2.10
2022-08-11T17:32:55.816Z,2.00
2022-08-11T17:38:05.183Z,1.92
2022-08-11T17:43:27.766Z,1.88
2022-08-11T17:48:35.746Z,1.92
2022-08-11T17:54:24.376Z,1.90
2022-08-11T17:59:49.324Z,1.90
2022-08-11T18:04:55.345Z,2.30
2022-08-11T18:10:17.779Z,2.05
2022-08-11T18:15:38.263Z,2.38
2022-08-11T18:21:12.089Z,2.10
2022-08-11T18:26:36.511Z,2.05
2022-08-11T18:32:02.521Z,2.17
2022-08-11T18:37:30.911Z,1.98
2022-08-11T18:42:52.849Z,2.00
2022-08-11T18:48:17.798Z,2.30
2022-08-11T18:53:45.719Z,2.15
2022-08-11T18:59:08.100Z,2.35
2022-08-11T19:04:30.777Z,2.40
2022-08-11T19:09:54.774Z,2.20
2022-08-11T19:15:17.805Z,2.10
2022-08-11T19:20:41.705Z,2.08
2022-08-11T19:26:05.029Z,1.60
2022-08-11T19:31:27.080Z,1.75
2022-08-11T19:36:48.566Z,1.90
2022-08-11T19:42:11.418Z,2.07
2022-08-11T19:47:32.881Z,3.05
2022-08-11T19:52:54.813Z,2.40
2022-08-11T19:58:16.798Z,2.20
2022-08-11T20:03:37.096Z,2.15
2022-08-11T20:09:00.612Z,2.08
2022-08-11T20:14:24.276Z,2.00
2022-08-11T20:19:56.620Z,2.30
2022-08-11T20:25:17.619Z,2.13
2022-08-11T20:30:39.676Z,2.30
2022-08-11T20:35:59.772Z,2.50
2022-08-11T20:41:21.817Z,2.38
2022-08-11T20:46:44.778Z,2.35
2022-08-11T20:52:06.325Z,2.67
2022-08-11T20:57:58.813Z,1.98
2022-08-11T21:03:11.265Z,2.40
2022-08-11T21:08:35.065Z,2.65
2022-08-11T21:13:58.254Z,2.50
2022-08-11T21:20:06.611Z,2.60
2022-08-11T21:25:06.484Z,2.40
2022-08-11T21:30:28.008Z,2.35
2022-08-11T21:35:50.514Z,2.10
2022-08-11T21:46:35.309Z,2.20
2022-08-11T21:51:57.904Z,2.50
2022-08-11T21:57:19.330Z,2.20
2022-08-11T22:02:40.293Z,2.45
2022-08-11T22:08:02.630Z,2.40
2022-08-11T22:13:22.741Z,2.35
2022-08-11T22:18:43.781Z,2.83
2022-08-11T22:24:07.717Z,2.35
2022-08-11T22:29:41.326Z,2.47
2022-08-11T22:35:10.848Z,2.33
2022-08-11T22:40:33.371Z,2.50
2022-08-11T22:51:14.658Z,2.10
2022-08-11T22:56:37.637Z,2.50
2022-08-11T23:01:59.381Z,2.75
2022-08-11T23:07:50.059Z,2.63
2022-08-11T23:13:03.451Z,2.70
2022-08-11T23:18:24.841Z,2.60
2022-08-11T23:23:47.605Z,2.50
2022-08-11T23:29:11.936Z,2.20
2022-08-11T23:34:41.757Z,2.60
2022-08-11T23:40:17.347Z,2.38
2022-08-11T23:45:42.622Z,2.40
2022-08-11T23:51:03.377Z,2.15
2022-08-11T23:56:25.132Z,2.78
